Time;durP1;ratioP1;P1;durP2;ratioP2;P2;SDS_P1;SDS_P2;PMS_P1;PMS_P2;Temp;Humidity;BMP_temperature;BMP_pressure;BME280_temperature;BME280_humidity;BME280_pressure;Samples;Min_cycle;Max_cycle;Signal;HPM_P1;HPM_P2
2021/09/23 00:01:06;;;;;;;28.50;21.47;;;;;;;11.84;81.69;101457.59;5073205;28;20319;-73
2021/09/23 00:03:55;;;;;;;30.63;22.10;;;;;;;11.85;81.81;101455.78;5073461;28;20221;-72
2021/09/23 00:06:22;;;;;;;29.90;21.17;;;;;;;11.82;81.98;101462.19;5073316;28;20238;-73
2021/09/23 00:08:48;;;;;;;25.13;20.10;;;;;;;11.80;81.87;101464.94;5072813;28;20281;-72
2021/09/23 00:11:17;;;;;;;28.83;21.43;;;;;;;11.80;81.81;101453.38;5072218;28;20221;-73
2021/09/23 00:13:44;;;;;;;32.17;22.10;;;;;;;11.77;81.75;101454.41;5073209;28;20201;-73
2021/09/23 00:16:11;;;;;;;31.20;21.80;;;;;;;11.77;81.75;101445.53;5073002;28;20215;-73
2021/09/23 00:18:38;;;;;;;30.00;22.43;;;;;;;11.75;81.78;101442.94;5072431;28;20251;-72
2021/09/23 00:21:06;;;;;;;31.77;21.60;;;;;;;11.74;82.05;101433.19;5071513;28;20254;-72
2021/09/23 00:23:33;;;;;;;29.50;21.67;;;;;;;11.73;81.83;101430.63;5072720;28;20211;-72
2021/09/23 00:26:00;;;;;;;34.53;20.77;;;;;;;11.72;81.79;101428.88;5072656;28;20212;-72
2021/09/23 00:28:28;;;;;;;28.80;20.50;;;;;;;11.70;81.78;101414.75;5072356;28;20210;-73
2021/09/23 00:30:55;;;;;;;28.23;21.27;;;;;;;11.67;81.67;101405.13;5072111;28;20260;-73
2021/09/23 00:33:22;;;;;;;19.00;15.20;;;;;;;11.62;80.96;101395.66;5072829;28;20213;-72
2021/09/23 00:35:49;;;;;;;19.03;14.73;;;;;;;11.48;80.25;101396.41;5072150;28;20199;-72
2021/09/23 00:38:16;;;;;;;15.50;13.80;;;;;;;11.37;79.68;101391.69;5072263;28;20566;-73
2021/09/23 00:40:43;;;;;;;18.97;14.80;;;;;;;11.29;79.63;101396.56;5072122;28;20673;-73
2021/09/23 00:43:10;;;;;;;18.60;15.37;;;;;;;11.25;79.92;101396.84;5067768;28;20206;-73
2021/09/23 00:45:39;;;;;;;21.27;16.13;;;;;;;11.21;80.16;101390.81;5079509;28;20189;-72
2021/09/23 00:48:06;;;;;;;22.67;15.93;;;;;;;11.18;80.11;101390.09;5066239;28;20199;-72
2021/09/23 00:50:33;;;;;;;24.90;18.87;;;;;;;11.14;79.99;101386.72;5072495;28;20229;-73
2021/09/23 00:53:00;;;;;;;30.93;19.60;;;;;;;11.13;80.44;101385.88;5072456;28;20214;-73
2021/09/23 00:55:27;;;;;;;31.87;22.90;;;;;;;11.12;80.66;101383.28;5063216;28;20299;-72
2021/09/23 00:57:54;;;;;;;33.17;22.20;;;;;;;11.14;81.25;101378.72;5080059;28;20212;-72
2021/09/23 01:00:22;;;;;;;24.90;17.83;;;;;;;11.16;81.17;101382.19;5072492;28;20213;-72
2021/09/23 01:02:50;;;;;;;20.00;15.83;;;;;;;11.12;80.62;101381.47;5072352;28;20715;-73
2021/09/23 01:05:17;;;;;;;21.50;15.67;;;;;;;11.06;80.51;101386.28;5072059;28;20699;-72
2021/09/23 01:07:47;;;;;;;23.60;17.83;;;;;;;10.96;80.18;101375.25;5071897;28;20214;-72
2021/09/23 01:10:15;;;;;;;27.47;19.07;;;;;;;10.88;80.02;101366.81;5071708;28;20248;-72
2021/09/23 01:12:44;;;;;;;22.67;17.83;;;;;;;10.83;80.23;101360.00;5072226;28;20837;-72
2021/09/23 01:15:13;;;;;;;24.10;18.60;;;;;;;10.79;80.41;101361.97;5065357;28;20223;-72
2021/09/23 01:17:39;;;;;;;26.63;18.87;;;;;;;10.75;80.56;101355.94;5071531;28;20280;-72
2021/09/23 01:20:10;;;;;;;23.33;17.37;;;;;;;10.73;80.55;101362.31;5069601;28;20202;-72
2021/09/23 01:22:38;;;;;;;27.83;19.50;;;;;;;10.69;80.48;101366.94;5079507;28;20221;-72
2021/09/23 01:25:07;;;;;;;28.37;20.40;;;;;;;10.68;80.69;101372.34;5072204;28;20202;-72
2021/09/23 01:27:34;;;;;;;32.10;22.97;;;;;;;10.67;80.68;101367.94;5071299;28;20198;-73
2021/09/23 01:30:01;;;;;;;33.63;22.67;;;;;;;10.66;81.12;101371.56;5070905;28;20224;-73
2021/09/23 01:32:28;;;;;;;33.80;23.23;;;;;;;10.66;81.34;101363.56;5070655;28;20717;-72
2021/09/23 01:34:55;;;;;;;40.53;24.70;;;;;;;10.66;81.44;101360.91;5071553;28;20208;-72
2021/09/23 01:37:22;;;;;;;35.87;24.53;;;;;;;10.65;81.36;101352.03;5072094;28;20724;-72
2021/09/23 01:39:51;;;;;;;35.83;24.73;;;;;;;10.66;81.42;101356.44;5071815;28;20219;-72
2021/09/23 01:42:17;;;;;;;38.03;24.30;;;;;;;10.65;81.86;101353.84;5071172;28;20230;-73
2021/09/23 01:44:45;;;;;;;39.30;25.00;;;;;;;10.64;81.93;101350.31;5071712;28;20212;-72
2021/09/23 01:47:12;;;;;;;38.17;24.97;;;;;;;10.65;81.97;101345.84;5071062;28;20212;-73
2021/09/23 01:49:39;;;;;;;40.20;25.63;;;;;;;10.63;81.77;101326.41;5066462;28;20238;-73
2021/09/23 01:52:06;;;;;;;35.80;24.70;;;;;;;10.64;81.81;101338.78;5071565;28;20225;-72
2021/09/23 01:54:34;;;;;;;32.40;22.60;;;;;;;10.63;82.22;101323.75;5071500;28;20291;-72
2021/09/23 01:57:02;;;;;;;24.43;18.43;;;;;;;10.61;81.85;101314.97;5071194;28;20205;-72
2021/09/23 01:59:29;;;;;;;21.73;17.87;;;;;;;10.56;81.67;101307.25;5071167;28;20205;-72
2021/09/23 02:01:56;;;;;;;31.07;19.87;;;;;;;10.50;81.05;101306.72;5071384;28;20236;-73
2021/09/23 02:04:23;;;;;;;28.30;20.63;;;;;;;10.45;80.84;101309.59;5071464;28;20658;-72
2021/09/23 02:06:50;;;;;;;22.90;18.80;;;;;;;10.39;80.83;101307.28;5071427;28;20215;-72
2021/09/23 02:09:16;;;;;;;25.77;19.73;;;;;;;10.32;80.14;101305.88;5071370;28;20204;-72
2021/09/23 02:11:43;;;;;;;23.03;16.67;;;;;;;10.23;79.73;101306.31;5071267;28;20301;-72
2021/09/23 02:14:12;;;;;;;24.20;17.43;;;;;;;10.14;79.49;101299.66;5071721;28;20224;-74
2021/09/23 02:16:39;;;;;;;28.93;20.00;;;;;;;10.06;80.24;101285.84;5071475;28;20213;-72
2021/09/23 02:19:06;;;;;;;26.10;19.17;;;;;;;10.02;79.94;101281.66;5070749;28;20219;-73
2021/09/23 02:21:33;;;;;;;29.33;20.20;;;;;;;9.99;80.05;101281.81;5070651;28;20221;-73
2021/09/23 02:24:00;;;;;;;33.03;21.30;;;;;;;9.97;80.46;101278.38;5071496;28;20236;-72
2021/09/23 02:26:27;;;;;;;34.67;21.60;;;;;;;9.95;80.33;101278.44;5071020;28;20295;-73
2021/09/23 02:28:54;;;;;;;33.03;21.77;;;;;;;9.95;80.59;101275.78;5071267;28;20213;-72
2021/09/23 02:31:23;;;;;;;32.97;20.37;;;;;;;9.94;80.53;101267.88;5070751;28;20228;-72
2021/09/23 02:33:50;;;;;;;29.70;20.37;;;;;;;9.93;80.79;101259.03;5071200;28;20201;-72
2021/09/23 02:36:17;;;;;;;32.03;21.07;;;;;;;9.93;81.42;101256.38;5071020;28;20216;-72
2021/09/23 02:38:45;;;;;;;32.33;21.60;;;;;;;9.92;80.94;101248.47;5070818;28;20270;-72
2021/09/23 02:41:12;;;;;;;26.47;19.90;;;;;;;9.90;80.75;101248.53;5071091;28;20224;-72
2021/09/23 02:43:39;;;;;;;34.03;21.67;;;;;;;9.90;81.30;101247.66;5068061;28;20297;-72
2021/09/23 02:46:06;;;;;;;31.77;21.97;;;;;;;9.90;81.38;101237.88;5072950;28;20232;-72
2021/09/23 02:48:35;;;;;;;30.67;22.97;;;;;;;9.89;81.88;101225.53;5075173;28;20197;-73
2021/09/23 02:51:02;;;;;;;33.27;22.93;;;;;;;9.87;82.16;101221.22;5074481;28;20239;-72
2021/09/23 02:53:29;;;;;;;34.80;23.40;;;;;;;9.86;81.92;101219.50;5074663;28;20218;-72
2021/09/23 02:55:56;;;;;;;37.27;23.83;;;;;;;9.86;82.26;101214.16;5074697;28;20208;-72
2021/09/23 02:58:23;;;;;;;38.47;24.73;;;;;;;9.85;82.34;101207.16;5072908;28;20205;-72
2021/09/23 03:00:51;;;;;;;36.10;24.73;;;;;;;9.83;82.64;101203.72;5074338;28;20272;-72
2021/09/23 03:03:18;;;;;;;35.80;24.13;;;;;;;9.83;82.71;101206.38;5074033;28;20266;-72
2021/09/23 03:05:47;;;;;;;39.53;26.37;;;;;;;9.83;83.04;101203.72;5074613;28;20216;-72
2021/09/23 03:08:14;;;;;;;39.27;25.20;;;;;;;9.82;83.08;101194.00;5073640;28;20212;-72
2021/09/23 03:10:41;;;;;;;43.73;27.73;;;;;;;9.83;83.10;101188.63;5073703;28;20307;-72
2021/09/23 03:13:08;;;;;;;40.87;25.93;;;;;;;9.83;83.26;101182.44;5074427;28;20209;-72
2021/09/23 03:15:35;;;;;;;46.10;28.97;;;;;;;9.82;83.55;101178.91;5074315;28;20637;-72
2021/09/23 03:18:03;;;;;;;40.70;25.20;;;;;;;9.81;83.52;101179.00;5074139;28;20275;-72
2021/09/23 03:20:30;;;;;;;39.80;25.17;;;;;;;9.78;83.10;101169.38;5073692;28;20213;-72
2021/09/23 03:23:00;;;;;;;41.83;26.37;;;;;;;9.71;83.12;101171.47;5074661;28;20262;-72
2021/09/23 03:25:29;;;;;;;52.90;31.67;;;;;;;9.68;83.31;101166.31;5075109;28;20236;-72
2021/09/23 03:27:57;;;;;;;45.53;29.17;;;;;;;9.66;83.93;101170.00;5075360;28;20300;-72
2021/09/23 03:30:24;;;;;;;58.83;32.53;;;;;;;9.67;84.24;101163.75;5074868;28;20229;-72
2021/09/23 03:32:51;;;;;;;59.70;32.30;;;;;;;9.71;84.04;101160.81;5090141;22;20290;-73
2021/09/23 03:35:18;;;;;;;68.60;35.83;;;;;;;9.74;84.89;101158.00;5073474;28;20212;-70
2021/09/23 03:37:45;;;;;;;66.23;36.20;;;;;;;9.82;85.19;101164.75;5073277;28;20671;-73
2021/09/23 03:40:13;;;;;;;67.63;37.50;;;;;;;9.92;85.28;101166.84;5073457;28;20215;-73
2021/09/23 03:42:40;;;;;;;61.80;35.30;;;;;;;10.01;85.50;101155.72;5073249;28;20596;-73
2021/09/23 03:45:08;;;;;;;60.63;34.50;;;;;;;10.14;86.20;101160.38;5073384;28;20678;-73
2021/09/23 03:47:35;;;;;;;62.73;35.00;;;;;;;10.23;86.52;101162.56;5073163;28;20209;-74
2021/09/23 03:50:02;;;;;;;60.00;34.47;;;;;;;10.32;86.39;101160.28;5073092;28;20299;-74
2021/09/23 03:52:28;;;;;;;61.23;33.73;;;;;;;10.41;86.66;101174.91;5073175;28;20229;-74
2021/09/23 03:54:55;;;;;;;62.23;33.57;;;;;;;10.50;86.90;101166.41;5073011;28;20197;-73
2021/09/23 03:57:23;;;;;;;65.70;33.67;;;;;;;10.58;86.86;101174.84;5072301;28;20585;-73
2021/09/23 03:59:49;;;;;;;61.83;34.17;;;;;;;10.63;86.70;101161.25;5072496;28;20209;-74
2021/09/23 04:02:16;;;;;;;62.27;33.60;;;;;;;10.68;86.71;101168.06;5072819;28;20714;-74
2021/09/23 04:04:42;;;;;;;60.93;34.43;;;;;;;10.71;86.35;101175.03;5072812;28;20201;-73
2021/09/23 04:07:09;;;;;;;60.90;34.83;;;;;;;10.72;86.25;101168.75;5069663;28;20201;-73
2021/09/23 04:09:36;;;;;;;55.03;33.50;;;;;;;10.71;85.87;101167.03;5071265;28;20284;-73
2021/09/23 04:12:02;;;;;;;58.90;35.67;;;;;;;10.69;85.68;101171.59;5071913;28;20213;-74
2021/09/23 04:14:30;;;;;;;56.63;34.90;;;;;;;10.68;85.44;101178.72;5065772;28;20211;-73
2021/09/23 04:16:57;;;;;;;59.63;35.27;;;;;;;10.68;85.59;101167.22;5071491;28;20212;-73
2021/09/23 04:19:24;;;;;;;55.63;33.47;;;;;;;10.66;85.01;101172.63;5071547;28;20219;-74
2021/09/23 04:21:51;;;;;;;59.23;36.03;;;;;;;10.65;85.12;101162.03;5066157;28;20227;-73
2021/09/23 04:24:18;;;;;;;66.87;36.70;;;;;;;10.64;84.88;101157.66;5070955;28;20303;-73
2021/09/23 04:26:45;;;;;;;61.83;35.60;;;;;;;10.63;84.70;101153.28;5064753;28;20197;-73
2021/09/23 04:29:12;;;;;;;61.60;34.63;;;;;;;10.62;84.86;101147.09;5069815;28;20204;-73
2021/09/23 04:31:40;;;;;;;61.97;35.00;;;;;;;10.61;84.73;101137.38;5070089;28;20725;-73
2021/09/23 04:34:06;;;;;;;59.03;34.10;;;;;;;10.62;84.45;101136.44;5070314;28;20209;-73
2021/09/23 04:36:33;;;;;;;54.23;32.73;;;;;;;10.65;85.17;101130.09;5067293;28;20202;-72
2021/09/23 04:39:00;;;;;;;56.37;32.57;;;;;;;10.68;85.19;101135.25;5063833;28;20201;-74
2021/09/23 04:41:26;;;;;;;50.97;30.97;;;;;;;10.72;85.22;101131.47;5067402;28;20220;-73
2021/09/23 04:43:53;;;;;;;60.00;32.37;;;;;;;10.78;85.13;101120.44;5068474;28;20582;-73
2021/09/23 04:46:21;;;;;;;61.23;34.00;;;;;;;10.83;85.06;101126.38;5071108;28;20231;-73
2021/09/23 04:48:50;;;;;;;58.73;32.87;;;;;;;10.86;84.94;101123.53;5071218;28;20201;-74
2021/09/23 04:51:17;;;;;;;55.70;31.60;;;;;;;10.89;85.04;101125.19;5071674;28;20638;-73
2021/09/23 04:53:44;;;;;;;53.83;32.03;;;;;;;10.91;84.87;101133.94;5069747;28;20201;-74
2021/09/23 04:56:11;;;;;;;52.80;31.97;;;;;;;10.93;84.62;101130.22;5063341;28;20207;-74
2021/09/23 04:58:37;;;;;;;51.03;32.03;;;;;;;10.94;84.54;101134.59;5053732;28;20201;-73
2021/09/23 05:01:04;;;;;;;53.30;31.60;;;;;;;10.94;84.32;101141.75;5055399;28;20292;-71
2021/09/23 05:03:31;;;;;;;56.23;32.63;;;;;;;10.94;84.55;101147.06;5059587;28;20585;-73
2021/09/23 05:05:59;;;;;;;58.90;32.10;;;;;;;10.94;84.33;101141.75;5057358;28;20744;-73
2021/09/23 05:08:26;;;;;;;56.30;31.07;;;;;;;10.95;84.19;101127.47;5063159;28;20213;-73
2021/09/23 05:10:52;;;;;;;55.87;33.30;;;;;;;10.94;83.94;101126.63;5060340;28;20216;-73
2021/09/23 05:13:19;;;;;;;54.23;32.83;;;;;;;10.92;83.92;101117.88;5061579;28;20204;-73
2021/09/23 05:15:46;;;;;;;52.50;33.10;;;;;;;10.92;83.91;101111.69;5063963;28;20295;-72
2021/09/23 05:18:13;;;;;;;54.27;32.97;;;;;;;10.91;83.79;101115.31;5065319;28;20206;-73
2021/09/23 05:20:40;;;;;;;60.50;33.20;;;;;;;10.90;83.74;101119.78;5065983;28;20214;-73
2021/09/23 05:23:08;;;;;;;56.70;33.30;;;;;;;10.91;83.99;101120.63;5063347;28;20217;-74
2021/09/23 05:25:36;;;;;;;55.37;32.07;;;;;;;10.90;83.96;101110.91;5064514;28;20299;-74
2021/09/23 05:28:03;;;;;;;52.73;30.47;;;;;;;10.88;83.84;101103.00;5059607;28;20198;-73
2021/09/23 05:30:29;;;;;;;53.57;31.27;;;;;;;10.89;83.79;101102.06;5054698;28;20205;-73
2021/09/23 05:32:56;;;;;;;50.73;28.73;;;;;;;10.90;83.83;101109.09;5070664;28;20217;-73
2021/09/23 05:35:23;;;;;;;47.77;30.07;;;;;;;10.90;83.63;101114.44;5067351;28;20204;-72
2021/09/23 05:37:50;;;;;;;52.27;29.87;;;;;;;10.90;83.82;101103.78;5085912;28;20206;-73
2021/09/23 05:40:18;;;;;;;53.80;31.50;;;;;;;10.91;83.72;101100.16;5091353;28;20203;-73
2021/09/23 05:42:44;;;;;;;51.67;30.07;;;;;;;10.93;83.71;101100.06;5091248;28;20238;-73
2021/09/23 05:45:13;;;;;;;48.90;29.67;;;;;;;10.95;84.01;101109.69;5091864;28;20228;-73
2021/09/23 05:47:40;;;;;;;49.93;29.60;;;;;;;10.97;83.65;101098.94;5090863;28;20200;-73
2021/09/23 05:50:09;;;;;;;47.53;29.70;;;;;;;10.99;83.75;101086.38;5091361;28;20211;-72
2021/09/23 05:52:35;;;;;;;51.17;30.30;;;;;;;11.01;83.96;101095.16;5089810;28;20230;-72
2021/09/23 05:55:02;;;;;;;47.63;29.70;;;;;;;11.03;83.88;101101.25;5070994;28;20200;-73
2021/09/23 05:57:34;;;;;;;46.17;28.57;;;;;;;11.06;84.05;101091.28;5071166;28;20235;-73
2021/09/23 06:00:01;;;;;;;50.60;29.10;;;;;;;11.10;84.08;101105.28;5070694;28;20200;-73
2021/09/23 06:02:28;;;;;;;42.97;28.73;;;;;;;11.13;84.06;101102.41;5064567;28;20223;-73
2021/09/23 06:04:54;;;;;;;49.57;29.17;;;;;;;11.18;83.88;101086.16;5063990;28;20571;-73
2021/09/23 06:07:21;;;;;;;45.80;28.20;;;;;;;11.21;84.15;101088.66;5066237;28;20208;-73
2021/09/23 06:09:47;;;;;;;45.90;28.70;;;;;;;11.24;84.27;101069.81;5066496;28;20197;-72
2021/09/23 06:12:14;;;;;;;48.83;29.10;;;;;;;11.26;84.16;101068.78;5066421;28;20577;-73
2021/09/23 06:14:42;;;;;;;47.80;27.40;;;;;;;11.32;84.08;101056.88;5067620;28;20605;-74
2021/09/23 06:17:15;;;;;;;42.53;28.47;;;;;;;11.38;84.58;101052.03;5063270;28;20212;-73
2021/09/23 06:19:42;;;;;;;46.17;26.63;;;;;;;11.43;84.21;101052.63;5064445;28;20201;-73
2021/09/23 06:22:09;;;;;;;44.17;26.47;;;;;;;11.51;84.20;101043.28;5070165;28;20229;-72
2021/09/23 06:24:36;;;;;;;38.00;24.07;;;;;;;11.56;83.99;101042.06;5072516;28;20207;-73
2021/09/23 06:27:03;;;;;;;40.10;24.27;;;;;;;11.63;84.03;101051.41;5069665;28;20671;-71
2021/09/23 06:29:30;;;;;;;42.40;24.80;;;;;;;11.70;84.06;101050.06;5066065;28;20210;-73
2021/09/23 06:31:58;;;;;;;36.20;22.83;;;;;;;11.77;83.83;101050.59;5065759;28;20228;-71
2021/09/23 06:34:24;;;;;;;34.20;22.07;;;;;;;11.86;83.68;101044.66;5072590;28;20205;-73
2021/09/23 06:36:51;;;;;;;36.33;22.10;;;;;;;11.95;83.55;101053.94;5071667;28;20209;-73
2021/09/23 06:39:18;;;;;;;29.63;21.13;;;;;;;12.01;83.16;101053.53;5070981;28;20209;-72
2021/09/23 06:41:45;;;;;;;32.33;19.90;;;;;;;12.09;82.88;101040.56;5072560;28;20225;-72
2021/09/23 06:44:11;;;;;;;30.77;20.27;;;;;;;12.15;82.72;101034.84;5072284;28;20213;-73
2021/09/23 06:46:39;;;;;;;35.13;20.67;;;;;;;12.23;82.37;101037.00;5072258;28;20205;-73
2021/09/23 06:49:07;;;;;;;29.97;19.83;;;;;;;12.28;82.02;101037.56;5071992;28;20203;-72
2021/09/23 06:51:33;;;;;;;28.80;18.13;;;;;;;12.33;82.00;101036.34;5066315;28;20309;-73
2021/09/23 06:54:00;;;;;;;25.50;18.03;;;;;;;12.41;81.43;101019.78;5068797;28;20216;-71
2021/09/23 06:56:26;;;;;;;29.90;18.53;;;;;;;12.49;81.29;101020.16;5066017;28;20203;-72
2021/09/23 06:58:53;;;;;;;24.17;17.10;;;;;;;12.57;81.07;101022.31;5069263;28;20688;-71
2021/09/23 07:01:20;;;;;;;23.30;16.70;;;;;;;12.64;81.04;101003.13;5071160;28;20635;-70
2021/09/23 07:03:46;;;;;;;23.63;16.70;;;;;;;12.72;80.57;101010.66;5065621;28;20213;-71
2021/09/23 07:06:14;;;;;;;24.83;16.83;;;;;;;12.80;80.16;101017.19;5067829;28;20213;-72
2021/09/23 07:08:41;;;;;;;22.23;16.60;;;;;;;12.90;80.05;101022.75;5064886;28;20205;-72
2021/09/23 07:11:08;;;;;;;21.57;16.03;;;;;;;13.00;79.82;101026.53;5063043;28;20209;-69
2021/09/23 07:13:34;;;;;;;20.33;15.17;;;;;;;13.09;79.41;101028.56;5067149;28;20197;-72
2021/09/23 07:16:01;;;;;;;23.97;16.43;;;;;;;13.18;78.71;101011.94;5069773;28;21319;-72
2021/09/23 07:18:28;;;;;;;21.50;16.07;;;;;;;13.27;78.61;100998.88;5068252;28;20584;-72
2021/09/23 07:20:55;;;;;;;19.90;15.13;;;;;;;13.36;78.29;100992.91;5070082;28;20207;-72
2021/09/23 07:23:24;;;;;;;21.53;14.97;;;;;;;13.44;77.22;100988.72;5066934;28;20253;-72
2021/09/23 07:25:51;;;;;;;18.07;14.23;;;;;;;13.52;77.46;100986.38;5072378;28;20286;-72
2021/09/23 07:28:17;;;;;;;17.63;14.80;;;;;;;13.62;76.71;100980.38;5072497;28;20700;-72
2021/09/23 07:30:44;;;;;;;20.63;13.60;;;;;;;13.73;76.79;100986.69;5073298;28;20211;-72
2021/09/23 07:33:11;;;;;;;18.90;13.60;;;;;;;13.81;75.96;100989.66;5073535;28;20588;-72
2021/09/23 07:35:37;;;;;;;21.73;13.43;;;;;;;13.92;75.71;100977.34;5073839;28;20227;-72
2021/09/23 07:38:04;;;;;;;21.33;14.00;;;;;;;14.03;75.75;100966.72;5073795;28;20201;-73
2021/09/23 07:40:32;;;;;;;17.87;12.80;;;;;;;14.12;74.94;100958.00;5073727;28;20204;-73
2021/09/23 07:42:59;;;;;;;19.17;13.60;;;;;;;14.19;74.76;100968.16;5073868;28;20228;-72
2021/09/23 07:45:27;;;;;;;17.60;12.40;;;;;;;14.30;74.47;100950.44;5074160;28;20291;-72
2021/09/23 07:47:53;;;;;;;17.37;13.67;;;;;;;14.39;73.80;100945.25;5073771;28;20254;-72
2021/09/23 07:50:20;;;;;;;18.83;12.30;;;;;;;14.47;73.84;100945.56;5073285;28;20197;-72
2021/09/23 07:52:47;;;;;;;14.97;11.20;;;;;;;14.52;72.78;100946.06;5073575;28;20220;-72
2021/09/23 07:55:13;;;;;;;17.63;12.67;;;;;;;14.56;72.40;100934.16;5073541;28;20208;-73
2021/09/23 07:57:41;;;;;;;18.17;12.13;;;;;;;14.62;72.22;100934.66;5073601;28;20227;-72
2021/09/23 08:00:09;;;;;;;18.37;12.27;;;;;;;14.66;72.13;100941.50;5073002;28;20215;-73
2021/09/23 08:02:36;;;;;;;17.00;12.30;;;;;;;14.72;72.04;100946.38;5073220;28;20233;-72
2021/09/23 08:05:03;;;;;;;16.97;11.63;;;;;;;14.78;71.51;100951.28;5073072;28;20209;-72
2021/09/23 08:07:29;;;;;;;14.33;10.67;;;;;;;14.83;71.13;100949.97;5073499;28;20262;-72
2021/09/23 08:09:56;;;;;;;13.37;10.50;;;;;;;14.87;70.49;100946.06;5072868;28;20296;-73
2021/09/23 08:12:22;;;;;;;20.90;12.23;;;;;;;14.87;70.18;100945.22;5073286;28;20221;-73
2021/09/23 08:14:50;;;;;;;17.07;11.07;;;;;;;14.92;69.80;100933.16;5073013;28;20729;-72
2021/09/23 08:17:17;;;;;;;16.10;11.37;;;;;;;15.00;69.94;100924.53;5072826;28;20586;-74
2021/09/23 08:19:44;;;;;;;17.00;11.33;;;;;;;15.08;69.23;100916.75;5072595;28;20205;-72
2021/09/23 08:22:11;;;;;;;14.70;11.40;;;;;;;15.21;69.92;100916.66;5072487;28;20702;-72
2021/09/23 08:24:38;;;;;;;15.77;11.87;;;;;;;15.33;69.17;100907.63;5072726;28;20582;-72
2021/09/23 08:27:04;;;;;;;13.27;10.40;;;;;;;15.50;68.75;100904.47;5072779;28;20247;-72
2021/09/23 08:29:31;;;;;;;15.17;10.67;;;;;;;15.65;68.17;100907.78;5072991;28;20205;-72
2021/09/23 08:31:59;;;;;;;13.30;10.60;;;;;;;15.79;67.52;100907.50;5072483;28;20635;-73
2021/09/23 08:34:25;;;;;;;13.33;10.10;;;;;;;15.91;67.33;100893.09;5072235;28;20581;-73
2021/09/23 08:36:52;;;;;;;13.70;9.83;;;;;;;15.99;66.73;100884.41;5072486;28;20211;-73
2021/09/23 08:39:19;;;;;;;10.87;9.77;;;;;;;16.01;66.18;100886.97;5072413;28;20700;-73
2021/09/23 08:41:48;;;;;;;13.37;10.00;;;;;;;16.00;65.39;100878.06;5071970;28;20723;-73
2021/09/23 08:44:14;;;;;;;11.07;8.87;;;;;;;16.03;65.59;100877.81;5072401;28;20209;-71
2021/09/23 08:46:42;;;;;;;10.73;9.23;;;;;;;16.10;65.35;100876.34;5072590;28;20205;-74
2021/09/23 08:49:10;;;;;;;12.30;9.43;;;;;;;16.16;65.34;100877.63;5072249;28;20618;-73
2021/09/23 08:51:38;;;;;;;12.93;8.80;;;;;;;16.24;65.26;100870.66;5072450;28;20236;-73
2021/09/23 08:54:06;;;;;;;11.40;9.20;;;;;;;16.39;65.12;100864.97;5072047;28;20206;-73
2021/09/23 08:56:33;;;;;;;9.27;8.27;;;;;;;16.54;65.24;100867.22;5072112;28;20679;-73
2021/09/23 08:59:00;;;;;;;12.80;8.50;;;;;;;16.72;64.49;100859.44;5071698;28;20220;-73
2021/09/23 09:01:32;;;;;;;10.57;8.13;;;;;;;16.87;64.09;100868.03;5072159;28;20222;-73
2021/09/23 09:04:01;;;;;;;10.33;8.07;;;;;;;17.05;63.77;100850.28;5072010;28;20227;-73
2021/09/23 09:06:29;;;;;;;8.57;7.67;;;;;;;17.22;63.10;100848.81;5072068;28;20211;-73
2021/09/23 09:08:56;;;;;;;11.40;7.67;;;;;;;17.33;62.49;100841.50;5071677;28;20213;-71
2021/09/23 09:11:23;;;;;;;8.80;7.63;;;;;;;17.46;62.32;100837.72;5071873;28;20223;-73
2021/09/23 09:13:52;;;;;;;10.97;8.57;;;;;;;17.59;61.85;100839.16;5072284;28;20202;-72
2021/09/23 09:16:22;;;;;;;9.83;7.63;;;;;;;17.74;61.15;100831.56;5070605;28;20277;-73
2021/09/23 09:18:51;;;;;;;8.47;7.10;;;;;;;17.83;59.92;100833.47;5060797;28;20284;-73
2021/09/23 09:21:20;;;;;;;8.50;7.03;;;;;;;17.97;59.73;100816.88;5060289;28;20233;-72
2021/09/23 09:23:49;;;;;;;9.57;7.03;;;;;;;18.12;59.62;100813.75;5058503;28;20221;-72
2021/09/23 09:26:23;;;;;;;9.60;7.37;;;;;;;18.27;59.40;100815.06;5069331;28;20229;-73
2021/09/23 09:28:53;;;;;;;7.53;6.73;;;;;;;18.38;58.56;100814.91;5071397;28;20209;-72
2021/09/23 09:31:21;;;;;;;7.00;6.20;;;;;;;18.53;58.15;100813.44;5096144;22;20232;-74
2021/09/23 09:33:49;;;;;;;7.20;6.07;;;;;;;18.67;57.88;100804.94;5045596;28;20241;-71
2021/09/23 09:36:31;;;;;;;7.83;5.33;;;;;;;18.84;57.53;100794.38;5037885;28;20416;-70
2021/09/23 09:39:01;;;;;;;7.37;5.00;;;;;;;18.95;56.06;100788.81;5035542;28;20664;-71
2021/09/23 09:41:30;;;;;;;8.57;5.13;;;;;;;19.01;54.67;100801.72;5037082;28;20218;-71
2021/09/23 09:43:58;;;;;;;6.10;4.57;;;;;;;19.04;54.43;100793.31;5041944;28;20234;-71
2021/09/23 09:46:26;;;;;;;6.80;5.17;;;;;;;19.10;54.74;100783.78;5050065;28;20209;-71
2021/09/23 09:48:54;;;;;;;7.03;4.30;;;;;;;19.16;53.88;100785.91;5045512;28;20205;-72
2021/09/23 09:51:22;;;;;;;6.23;4.03;;;;;;;19.19;53.54;100783.72;5048735;28;20205;-71
2021/09/23 09:53:59;;;;;;;9.47;5.53;;;;;;;19.23;52.12;100800.47;5043604;28;20198;-70
2021/09/23 09:56:26;;;;;;;11.47;4.97;;;;;;;19.18;50.89;100771.22;5049169;28;20236;-71
2021/09/23 09:59:20;;;;;;;10.97;5.13;;;;;;;19.24;51.01;100767.09;5043762;28;20198;-70
2021/09/23 10:01:49;;;;;;;10.23;4.23;;;;;;;19.31;50.80;100758.25;5002898;28;20218;-71
2021/09/23 10:04:17;;;;;;;6.87;4.00;;;;;;;19.37;50.00;100757.63;5070799;28;20224;-71
2021/09/23 10:06:44;;;;;;;6.60;4.60;;;;;;;19.40;50.30;100751.94;5071432;28;20585;-71
2021/09/23 10:09:15;;;;;;;13.80;5.00;;;;;;;19.46;49.72;100738.81;5070727;28;20203;-71
2021/09/23 10:11:44;;;;;;;11.20;5.70;;;;;;;19.49;49.07;100744.78;5071646;28;20248;-72
2021/09/23 10:14:11;;;;;;;13.20;5.00;;;;;;;19.51;49.03;100737.41;5071207;28;20200;-71
2021/09/23 10:16:38;;;;;;;7.87;4.00;;;;;;;19.56;48.82;100736.94;5071139;28;20688;-71
2021/09/23 10:19:06;;;;;;;7.63;4.60;;;;;;;19.58;48.36;100735.78;5070670;28;20207;-71
2021/09/23 10:21:34;;;;;;;12.87;4.83;;;;;;;19.64;48.02;100731.63;5070704;28;20201;-71
2021/09/23 10:24:03;;;;;;;7.07;4.50;;;;;;;19.63;47.52;100713.72;5071115;28;20231;-71
2021/09/23 10:26:35;;;;;;;6.00;4.23;;;;;;;19.64;47.56;100724.38;5070913;28;20222;-71
2021/09/23 10:29:04;;;;;;;7.47;5.03;;;;;;;19.67;47.93;100717.81;5070553;28;20205;-71
2021/09/23 10:31:33;;;;;;;7.20;3.77;;;;;;;19.78;48.05;100714.88;5070713;28;20287;-71
2021/09/23 10:34:02;;;;;;;6.87;3.90;;;;;;;19.86;47.86;100711.41;5070813;28;20230;-71
2021/09/23 10:36:30;;;;;;;7.37;4.10;;;;;;;19.95;47.83;100703.19;5065268;28;20768;-72
2021/09/23 10:38:58;;;;;;;4.17;3.50;;;;;;;20.03;47.33;100702.41;5050292;28;20213;-72
2021/09/23 10:41:26;;;;;;;5.77;3.70;;;;;;;20.10;46.91;100688.09;5044665;28;20344;-71
2021/09/23 10:43:56;;;;;;;8.43;4.50;;;;;;;20.13;46.57;100686.94;5040456;28;20225;-71
2021/09/23 10:46:26;;;;;;;5.27;3.90;;;;;;;20.16;46.37;100677.66;5038966;28;20212;-71
2021/09/23 10:48:54;;;;;;;8.13;3.40;;;;;;;20.20;46.02;100688.03;5039564;28;20584;-71
2021/09/23 10:51:22;;;;;;;7.00;3.33;;;;;;;20.14;45.63;100687.78;5044394;28;20208;-71
2021/09/23 10:53:52;;;;;;;6.67;4.07;;;;;;;20.09;45.39;100689.09;5038679;28;20204;-71
2021/09/23 10:56:21;;;;;;;11.77;4.63;;;;;;;20.02;45.27;100669.13;5043010;28;20265;-71
2021/09/23 10:58:49;;;;;;;5.33;3.73;;;;;;;20.05;45.62;100662.56;5039639;28;20218;-71
2021/09/23 11:01:28;;;;;;;6.00;3.90;;;;;;;20.10;46.40;100660.22;5040962;28;20210;-70
2021/09/23 11:03:56;;;;;;;4.30;3.80;;;;;;;20.17;46.46;100663.13;5045170;28;20726;-71
2021/09/23 11:06:32;;;;;;;7.27;3.97;;;;;;;20.20;45.76;100646.59;5042956;28;20635;-71
2021/09/23 11:09:15;;;;;;;7.23;3.70;;;;;;;20.23;45.52;100667.94;5042574;28;20211;-73
2021/09/23 11:11:43;;;;;;;5.07;3.37;;;;;;;20.30;45.72;100647.34;5044526;28;20235;-72
2021/09/23 11:14:10;;;;;;;10.00;3.80;;;;;;;20.31;45.40;100667.97;5041947;28;20204;-72
2021/09/23 11:16:38;;;;;;;6.90;3.93;;;;;;;20.37;45.53;100670.91;5045103;28;20208;-73